createdAt,value
2022-12-11T00:00:30.853Z,96.80
2022-12-11T00:02:58.235Z,96.90
2022-12-11T00:05:29.993Z,97.20
2022-12-11T00:07:58.656Z,97.10
2022-12-11T00:10:26.193Z,96.70
2022-12-11T00:12:53.600Z,96.50
2022-12-11T00:15:21.203Z,96.20
2022-12-11T00:17:49.138Z,96.00
2022-12-11T00:20:16.577Z,95.80
2022-12-11T00:25:24.967Z,95.80
2022-12-11T00:27:52.419Z,96.20
2022-12-11T00:30:21.283Z,96.00
2022-12-11T00:32:51.170Z,95.80
2022-12-11T00:35:19.666Z,95.40
2022-12-11T00:37:47.519Z,95.30
2022-12-11T00:40:14.866Z,95.00
2022-12-11T00:42:42.269Z,94.50
2022-12-11T00:45:10.548Z,94.40
2022-12-11T00:47:38.275Z,94.10
2022-12-11T00:50:10.383Z,93.90
2022-12-11T00:52:38.014Z,94.10
2022-12-11T00:55:05.962Z,94.50
2022-12-11T00:57:35.567Z,94.70
2022-12-11T01:00:05.061Z,95.20
2022-12-11T01:02:34.034Z,95.40
2022-12-11T01:05:03.794Z,95.30
2022-12-11T01:07:31.733Z,95.10
2022-12-11T01:10:17.811Z,95.10
2022-12-11T01:12:45.463Z,95.30
2022-12-11T01:15:14.395Z,95.60
2022-12-11T01:17:41.822Z,95.50
2022-12-11T01:20:09.402Z,95.50
2022-12-11T01:22:36.634Z,95.50
2022-12-11T01:25:05.446Z,95.60
2022-12-11T01:27:32.793Z,95.80
2022-12-11T01:30:00.205Z,96.30
2022-12-11T01:32:28.814Z,96.70
2022-12-11T01:34:56.153Z,97.10
2022-12-11T01:37:23.321Z,97.70
2022-12-11T01:39:50.534Z,98.10
2022-12-11T01:42:19.823Z,98.20
2022-12-11T01:44:46.987Z,98.30
2022-12-11T01:47:14.399Z,98.20
2022-12-11T01:49:42.255Z,98.50
2022-12-11T01:52:20.343Z,98.30
2022-12-11T01:54:48.433Z,98.20
2022-12-11T01:57:16.400Z,98.00
2022-12-11T01:59:46.673Z,97.50
2022-12-11T02:02:24.664Z,96.90
2022-12-11T02:04:52.053Z,96.50
2022-12-11T02:07:19.426Z,96.00
2022-12-11T02:09:48.581Z,95.70
2022-12-11T02:12:41.781Z,95.80
2022-12-11T02:15:15.534Z,95.90
2022-12-11T02:18:24.490Z,95.80
2022-12-11T02:21:03.345Z,95.30
2022-12-11T02:23:51.984Z,95.20
2022-12-11T02:26:58.309Z,94.80
2022-12-11T02:29:38.277Z,94.00
2022-12-11T02:32:15.750Z,93.60
2022-12-11T02:34:51.815Z,92.80
2022-12-11T02:37:23.391Z,92.10
2022-12-11T02:39:54.037Z,91.80
2022-12-11T02:42:23.190Z,91.70
2022-12-11T02:44:53.148Z,91.50
2022-12-11T02:47:22.189Z,91.10
2022-12-11T02:49:51.506Z,91.00
2022-12-11T02:52:22.350Z,90.70
2022-12-11T02:54:52.952Z,90.60
2022-12-11T02:57:33.696Z,90.60
2022-12-11T03:00:01.089Z,90.20
2022-12-11T03:02:28.408Z,90.00
2022-12-11T03:04:57.517Z,90.00
2022-12-11T03:07:33.168Z,90.10
2022-12-11T03:10:00.789Z,89.60
2022-12-11T03:12:38.964Z,89.40
2022-12-11T03:15:14.030Z,88.20
2022-12-11T03:17:57.862Z,88.50
2022-12-11T03:20:38.606Z,88.40
2022-12-11T03:23:11.964Z,88.30
2022-12-11T03:25:49.244Z,88.00
2022-12-11T03:28:26.550Z,88.00
2022-12-11T03:30:54.462Z,87.80
2022-12-11T03:33:31.053Z,87.60
2022-12-11T03:36:05.588Z,87.40
2022-12-11T03:38:38.198Z,87.00
2022-12-11T03:41:07.970Z,86.80
2022-12-11T03:43:36.639Z,86.30
2022-12-11T03:46:04.841Z,86.00
2022-12-11T03:48:37.211Z,85.80
2022-12-11T03:51:06.690Z,85.70
2022-12-11T03:53:35.769Z,85.50
2022-12-11T03:56:06.466Z,85.80
2022-12-11T03:58:34.017Z,85.90
2022-12-11T04:01:01.402Z,86.00
2022-12-11T04:03:28.693Z,86.50
2022-12-11T04:05:56.746Z,86.80
2022-12-11T04:08:24.611Z,87.20
2022-12-11T04:11:10.765Z,87.50
2022-12-11T04:13:38.819Z,87.80
2022-12-11T04:16:06.519Z,88.00
2022-12-11T04:18:57.022Z,88.40
2022-12-11T04:21:42.459Z,88.50
2022-12-11T04:24:15.960Z,88.30
2022-12-11T04:26:45.623Z,88.00
2022-12-11T04:29:13.836Z,87.30
2022-12-11T04:31:41.123Z,87.00
2022-12-11T04:34:08.784Z,86.80
2022-12-11T04:36:36.338Z,86.70
2022-12-11T04:39:05.350Z,86.50
2022-12-11T04:41:32.831Z,86.10
2022-12-11T04:44:00.153Z,86.10
2022-12-11T04:46:27.581Z,86.10
2022-12-11T04:48:57.636Z,86.10
2022-12-11T04:51:25.726Z,86.10
2022-12-11T04:53:54.499Z,86.20
2022-12-11T04:56:22.393Z,86.40
2022-12-11T04:58:49.689Z,86.40
2022-12-11T05:01:20.229Z,86.30
2022-12-11T05:03:47.862Z,86.40
2022-12-11T05:06:15.671Z,86.40
2022-12-11T05:08:45.423Z,86.60
2022-12-11T05:11:15.029Z,86.60
2022-12-11T05:13:43.133Z,86.50
2022-12-11T05:16:13.016Z,86.50
2022-12-11T05:18:40.540Z,86.30
2022-12-11T05:21:10.390Z,86.10
2022-12-11T05:23:38.365Z,86.40
2022-12-11T05:26:09.070Z,86.70
2022-12-11T05:28:38.818Z,86.50
2022-12-11T05:31:13.560Z,86.00
2022-12-11T05:33:40.908Z,86.10
2022-12-11T05:36:08.945Z,86.00
2022-12-11T05:38:36.463Z,85.80
2022-12-11T05:41:06.411Z,85.20
2022-12-11T05:43:36.781Z,84.80
2022-12-11T05:46:13.495Z,84.60
2022-12-11T05:48:42.537Z,84.30
2022-12-11T05:51:10.740Z,83.90
2022-12-11T05:53:39.836Z,84.10
2022-12-11T05:56:26.660Z,84.00
2022-12-11T05:58:55.258Z,84.00
2022-12-11T06:01:26.337Z,83.20
2022-12-11T06:03:55.117Z,82.00
2022-12-11T06:06:22.850Z,81.60
2022-12-11T06:08:52.015Z,80.60
2022-12-11T06:11:23.912Z,79.90
2022-12-11T06:13:53.388Z,79.30
2022-12-11T06:16:21.472Z,78.70
2022-12-11T06:18:48.853Z,78.00
2022-12-11T06:21:22.225Z,77.70
2022-12-11T06:23:51.409Z,77.20
2022-12-11T06:26:19.862Z,77.00
2022-12-11T06:28:48.382Z,77.20
2022-12-11T06:31:15.818Z,77.00
2022-12-11T06:33:43.515Z,76.70
2022-12-11T06:36:15.524Z,76.40
2022-12-11T06:38:43.166Z,75.90
2022-12-11T06:41:10.579Z,75.90
2022-12-11T06:43:40.285Z,76.20
2022-12-11T06:46:10.147Z,76.60
2022-12-11T06:48:38.076Z,76.60
2022-12-11T06:51:13.768Z,76.70
2022-12-11T06:53:41.276Z,77.00
2022-12-11T06:56:15.061Z,77.00
2022-12-11T06:58:44.308Z,76.90
2022-12-11T07:01:23.591Z,76.80
2022-12-11T07:03:53.793Z,77.20
2022-12-11T07:06:21.311Z,77.20
2022-12-11T07:08:48.515Z,77.10
2022-12-11T07:11:17.591Z,77.30
2022-12-11T07:13:45.166Z,77.20
2022-12-11T07:16:14.199Z,77.50
2022-12-11T07:18:52.734Z,77.40
2022-12-11T07:21:21.265Z,77.30
2022-12-11T07:23:49.900Z,77.50
2022-12-11T07:26:19.634Z,77.60
2022-12-11T07:28:47.613Z,77.30
2022-12-11T07:31:19.818Z,77.30
2022-12-11T07:33:47.512Z,76.90
2022-12-11T07:36:16.320Z,76.60
2022-12-11T07:38:43.770Z,76.40
2022-12-11T07:41:13.324Z,77.00
2022-12-11T07:43:41.620Z,76.60
2022-12-11T07:46:18.179Z,75.30
2022-12-11T07:48:47.052Z,75.60
2022-12-11T07:51:23.106Z,74.60
2022-12-11T07:53:51.196Z,73.90
2022-12-11T07:56:19.525Z,74.70
2022-12-11T07:58:47.522Z,75.20
2022-12-11T08:01:20.713Z,74.80
2022-12-11T08:03:48.413Z,73.50
2022-12-11T08:06:15.672Z,72.40
2022-12-11T08:08:43.475Z,70.80
2022-12-11T08:11:12.958Z,70.20
2022-12-11T08:13:42.381Z,70.40
2022-12-11T08:16:13.264Z,69.50
2022-12-11T08:18:44.585Z,69.90
2022-12-11T08:21:17.826Z,69.50
2022-12-11T08:23:46.321Z,69.60
2022-12-11T08:26:18.363Z,70.00
2022-12-11T08:28:45.974Z,69.80
2022-12-11T08:31:15.027Z,70.90
2022-12-11T08:33:43.145Z,71.70
2022-12-11T08:36:12.968Z,72.70
2022-12-11T08:38:40.515Z,73.50
2022-12-11T08:41:19.700Z,73.60
2022-12-11T08:43:48.515Z,73.80
2022-12-11T08:46:16.230Z,73.80
2022-12-11T08:48:44.153Z,73.30
2022-12-11T08:51:15.031Z,73.70
2022-12-11T08:53:43.117Z,74.30
2022-12-11T08:56:15.918Z,74.40
2022-12-11T08:58:44.003Z,74.70
2022-12-11T09:01:14.395Z,74.80
2022-12-11T09:03:42.225Z,73.80
2022-12-11T09:06:15.673Z,72.70
2022-12-11T09:08:47.312Z,72.40
2022-12-11T09:11:22.602Z,71.80
2022-12-11T09:13:50.234Z,71.40
2022-12-11T09:16:19.702Z,71.60
2022-12-11T09:18:49.222Z,72.00
2022-12-11T09:21:21.809Z,71.80
2022-12-11T09:23:49.825Z,72.20
2022-12-11T09:26:18.386Z,72.10
2022-12-11T09:28:47.259Z,72.10
2022-12-11T09:31:21.365Z,70.50
2022-12-11T09:33:48.698Z,70.90
2022-12-11T09:36:16.101Z,70.60
2022-12-11T09:38:46.418Z,71.20
2022-12-11T09:41:42.845Z,71.10
2022-12-11T09:44:28.853Z,69.20
2022-12-11T09:46:57.810Z,69.90
2022-12-11T09:49:37.794Z,69.00
2022-12-11T09:52:13.936Z,65.80
2022-12-11T09:54:59.549Z,64.40
2022-12-11T09:57:32.612Z,64.50
2022-12-11T10:00:15.748Z,64.30
2022-12-11T10:03:07.481Z,64.10
2022-12-11T10:05:40.162Z,62.10
2022-12-11T10:08:27.474Z,61.40
2022-12-11T10:11:26.365Z,60.40
2022-12-11T10:14:14.494Z,59.50
2022-12-11T10:16:45.955Z,59.20
2022-12-11T10:19:28.020Z,58.20
2022-12-11T10:21:56.007Z,58.20
2022-12-11T10:25:07.527Z,58.50
2022-12-11T10:27:22.318Z,57.80
2022-12-11T10:30:01.342Z,57.40
2022-12-11T10:32:45.294Z,55.90
2022-12-11T10:35:29.085Z,55.30
2022-12-11T10:38:02.954Z,54.60
2022-12-11T10:40:32.620Z,55.20
2022-12-11T10:42:59.859Z,55.30
2022-12-11T10:45:27.155Z,54.10
2022-12-11T10:48:04.334Z,53.60
2022-12-11T10:50:31.705Z,53.10
2022-12-11T10:52:59.041Z,52.10
2022-12-11T10:55:31.212Z,51.00
2022-12-11T10:58:01.353Z,51.20
2022-12-11T11:00:38.604Z,50.70
2022-12-11T11:03:20.002Z,49.40
2022-12-11T11:05:49.554Z,49.60
2022-12-11T11:08:21.653Z,48.20
2022-12-11T11:10:53.549Z,48.10
2022-12-11T11:13:23.718Z,47.40
2022-12-11T11:16:10.022Z,46.50
2022-12-11T11:18:39.890Z,45.20
2022-12-11T11:21:07.605Z,43.90
2022-12-11T11:23:37.695Z,43.80
2022-12-11T11:26:09.179Z,40.90
2022-12-11T11:28:54.964Z,41.00
2022-12-11T11:31:31.758Z,41.10
2022-12-11T11:34:04.129Z,41.70
2022-12-11T11:36:34.130Z,41.50
2022-12-11T11:39:23.699Z,41.30
2022-12-11T11:42:07.694Z,40.30
2022-12-11T11:44:45.549Z,40.00
2022-12-11T11:47:23.778Z,40.10
2022-12-11T11:49:58.761Z,40.40
2022-12-11T11:52:50.275Z,40.30
2022-12-11T11:55:33.801Z,40.10
2022-12-11T11:58:09.612Z,41.00
2022-12-11T12:03:26.915Z,40.10
2022-12-11T12:06:13.447Z,40.30
2022-12-11T12:08:57.346Z,39.80
2022-12-11T12:11:34.554Z,39.30
2022-12-11T12:14:43.755Z,39.40
2022-12-11T12:17:05.183Z,39.70
2022-12-11T12:19:53.286Z,40.30
2022-12-11T12:22:40.433Z,40.60
2022-12-11T12:25:17.470Z,41.50
2022-12-11T12:27:56.027Z,42.20
2022-12-11T12:30:24.222Z,44.00
2022-12-11T12:32:54.681Z,45.00
2022-12-11T12:35:33.057Z,45.10
2022-12-11T12:38:09.713Z,45.30
2022-12-11T12:40:38.071Z,45.70
2022-12-11T12:43:29.348Z,45.80
2022-12-11T12:46:30.319Z,44.30
2022-12-11T12:48:59.567Z,45.80
2022-12-11T12:51:28.438Z,45.90
2022-12-11T12:53:59.874Z,46.90
2022-12-11T12:56:29.449Z,47.10
2022-12-11T12:58:58.032Z,47.80
2022-12-11T13:01:28.596Z,47.80
2022-12-11T13:03:55.956Z,48.10
2022-12-11T13:06:37.132Z,48.20
2022-12-11T13:09:30.578Z,48.80
2022-12-11T13:11:58.231Z,48.70
2022-12-11T13:14:28.713Z,48.50
2022-12-11T13:17:21.160Z,48.40
2022-12-11T13:19:49.979Z,48.30
2022-12-11T13:22:17.535Z,47.20
2022-12-11T13:25:01.958Z,47.50
2022-12-11T13:27:47.550Z,47.00
2022-12-11T13:30:14.853Z,46.10
2022-12-11T13:33:05.154Z,45.00
2022-12-11T13:35:34.374Z,43.80
2022-12-11T13:38:08.403Z,44.00
2022-12-11T13:40:43.093Z,44.30
2022-12-11T13:43:20.750Z,43.20
2022-12-11T13:45:58.653Z,43.40
2022-12-11T13:48:49.148Z,43.40
2022-12-11T13:51:19.407Z,42.80
2022-12-11T13:53:48.919Z,42.70
2022-12-11T13:56:23.307Z,43.40
2022-12-11T13:58:52.102Z,43.20
2022-12-11T14:01:28.762Z,43.40
2022-12-11T14:04:08.294Z,43.60
2022-12-11T14:06:37.289Z,43.50
2022-12-11T14:09:05.751Z,43.60
2022-12-11T14:11:42.831Z,43.80
2022-12-11T14:14:53.962Z,44.30
2022-12-11T14:17:26.614Z,44.10
2022-12-11T14:19:56.199Z,44.30
2022-12-11T14:22:29.053Z,44.80
2022-12-11T14:24:59.160Z,44.30
2022-12-11T14:27:27.673Z,44.20
2022-12-11T14:29:55.262Z,44.50
2022-12-11T14:32:38.709Z,44.90
2022-12-11T14:35:06.932Z,45.50
2022-12-11T14:37:36.618Z,46.20
2022-12-11T14:40:08.783Z,46.50
2022-12-11T14:42:42.449Z,46.90
2022-12-11T14:45:31.716Z,47.00
2022-12-11T14:48:02.124Z,47.40
2022-12-11T14:50:41.172Z,47.30
2022-12-11T14:53:13.920Z,47.30
2022-12-11T14:55:41.729Z,47.90
2022-12-11T14:58:25.050Z,48.50
2022-12-11T15:01:03.328Z,48.60
2022-12-11T15:03:37.419Z,49.00
2022-12-11T15:06:24.585Z,49.60
2022-12-11T15:08:52.046Z,50.10
2022-12-11T15:11:19.615Z,50.60
2022-12-11T15:13:58.360Z,51.20
2022-12-11T15:16:30.285Z,51.60
2022-12-11T15:18:59.055Z,52.00
2022-12-11T15:21:31.592Z,52.60
2022-12-11T15:24:01.771Z,53.10
2022-12-11T15:26:44.456Z,53.60
2022-12-11T15:29:33.702Z,54.00
2022-12-11T15:32:03.671Z,56.80
2022-12-11T15:34:45.522Z,58.60
2022-12-11T15:37:30.305Z,60.50
2022-12-11T15:40:00.695Z,63.10
2022-12-11T15:42:35.396Z,61.40
2022-12-11T15:45:05.565Z,59.10
2022-12-11T15:47:33.289Z,59.00
2022-12-11T15:50:22.211Z,59.00
2022-12-11T15:52:51.130Z,59.00
2022-12-11T15:55:19.872Z,59.20
2022-12-11T15:57:53.711Z,60.40
2022-12-11T16:00:22.353Z,61.40
2022-12-11T16:02:49.870Z,62.60
2022-12-11T16:05:17.305Z,64.60
2022-12-11T16:07:44.932Z,66.30
2022-12-11T16:10:18.758Z,67.50
2022-12-11T16:12:48.506Z,68.70
2022-12-11T16:15:22.792Z,69.90
2022-12-11T16:17:50.860Z,69.60
2022-12-11T16:20:18.373Z,70.70
2022-12-11T16:22:45.665Z,71.60
2022-12-11T16:25:13.102Z,72.40
2022-12-11T16:27:40.585Z,72.60
2022-12-11T16:30:10.771Z,73.00
2022-12-11T16:32:38.115Z,72.60
2022-12-11T16:35:05.762Z,72.80
2022-12-11T16:37:33.084Z,73.20
2022-12-11T16:40:00.421Z,72.80
2022-12-11T16:42:27.788Z,72.60
2022-12-11T16:44:55.110Z,72.70
2022-12-11T16:47:22.444Z,72.90
2022-12-11T16:49:51.025Z,73.20
2022-12-11T16:52:22.086Z,73.10
2022-12-11T16:54:49.774Z,73.40
2022-12-11T16:57:19.793Z,73.60
2022-12-11T16:59:48.426Z,74.00
2022-12-11T17:02:15.967Z,74.20
2022-12-11T17:04:43.369Z,74.60
2022-12-11T17:07:10.598Z,75.00
2022-12-11T17:09:38.125Z,75.40
2022-12-11T17:12:05.805Z,75.70
2022-12-11T17:14:33.125Z,76.20
2022-12-11T17:17:01.055Z,76.70
2022-12-11T17:19:29.580Z,77.10
2022-12-11T17:21:59.173Z,77.50
2022-12-11T17:27:11.174Z,78.30
2022-12-11T17:29:38.546Z,78.90
2022-12-11T17:32:06.172Z,79.20
2022-12-11T17:34:38.167Z,79.80
2022-12-11T17:37:06.447Z,80.20
2022-12-11T17:39:33.919Z,80.50
2022-12-11T17:42:02.091Z,80.80
2022-12-11T17:44:31.262Z,81.10
2022-12-11T17:46:59.240Z,81.20
2022-12-11T17:49:27.491Z,81.40
2022-12-11T17:51:55.552Z,81.80
2022-12-11T17:54:23.889Z,82.10
2022-12-11T17:56:51.452Z,82.60
2022-12-11T17:59:18.869Z,83.10
2022-12-11T18:01:46.143Z,83.60
2022-12-11T18:04:13.787Z,84.00
2022-12-11T18:06:41.149Z,84.30
2022-12-11T18:09:09.138Z,84.50
2022-12-11T18:11:37.385Z,84.80
2022-12-11T18:14:05.028Z,84.90
2022-12-11T18:16:36.984Z,84.90
2022-12-11T18:19:10.527Z,85.30
2022-12-11T18:21:41.440Z,85.60
2022-12-11T18:24:09.494Z,86.10
2022-12-11T18:26:38.519Z,86.70
2022-12-11T18:29:06.901Z,86.90
2022-12-11T18:31:37.572Z,87.30
2022-12-11T18:34:13.800Z,87.60
2022-12-11T18:36:41.144Z,88.30
2022-12-11T18:39:08.497Z,88.50
2022-12-11T18:41:36.046Z,89.00
2022-12-11T18:44:09.373Z,89.50
2022-12-11T18:46:37.734Z,90.00
2022-12-11T18:49:05.449Z,90.50
2022-12-11T18:51:32.673Z,90.60
2022-12-11T18:53:59.897Z,91.00
2022-12-11T18:56:27.291Z,91.20
2022-12-11T18:58:54.554Z,91.50
2022-12-11T19:01:25.481Z,91.70
2022-12-11T19:04:04.223Z,91.50
2022-12-11T19:06:36.010Z,91.60
2022-12-11T19:09:06.191Z,91.80
2022-12-11T19:11:35.036Z,91.70
2022-12-11T19:14:02.515Z,91.40
2022-12-11T19:16:36.027Z,91.40
2022-12-11T19:19:12.517Z,91.40
2022-12-11T19:21:40.446Z,91.50
2022-12-11T19:24:11.613Z,91.60
2022-12-11T19:26:39.357Z,91.30
2022-12-11T19:29:06.917Z,91.60
2022-12-11T19:31:34.842Z,91.90
2022-12-11T19:34:03.140Z,92.60
2022-12-11T19:36:31.745Z,93.30
2022-12-11T19:39:03.002Z,93.60
2022-12-11T19:41:32.748Z,94.20
2022-12-11T19:44:00.210Z,94.30
2022-12-11T19:46:29.733Z,94.30
2022-12-11T19:48:58.614Z,94.30
2022-12-11T19:51:30.846Z,94.50
2022-12-11T19:53:59.087Z,94.40
2022-12-11T19:56:26.424Z,93.80
2022-12-11T19:58:53.693Z,93.60
2022-12-11T20:01:26.266Z,93.60
2022-12-11T20:03:55.470Z,93.70
2022-12-11T20:06:29.838Z,93.70
2022-12-11T20:08:57.412Z,93.80
2022-12-11T20:11:25.614Z,93.90
2022-12-11T20:13:55.661Z,94.10
2022-12-11T20:16:39.652Z,94.40
2022-12-11T20:19:10.895Z,94.30
2022-12-11T20:21:38.419Z,94.10
2022-12-11T20:24:06.322Z,93.50
2022-12-11T20:26:40.691Z,93.00
2022-12-11T20:29:08.561Z,92.60
2022-12-11T20:31:37.078Z,92.70
2022-12-11T20:34:05.904Z,92.70
2022-12-11T20:36:33.662Z,92.30
2022-12-11T20:39:01.054Z,92.20
2022-12-11T20:41:28.549Z,91.70
2022-12-11T20:43:55.870Z,91.40
2022-12-11T20:46:25.397Z,91.00
2022-12-11T20:48:54.236Z,90.30
2022-12-11T20:51:26.043Z,89.50
2022-12-11T20:53:59.340Z,89.10
2022-12-11T20:56:31.332Z,88.70
2022-12-11T20:58:59.674Z,88.40
2022-12-11T21:01:29.678Z,88.30
2022-12-11T21:03:57.804Z,88.20
2022-12-11T21:06:26.333Z,88.00
2022-12-11T21:08:54.388Z,87.80
2022-12-11T21:11:24.397Z,87.70
2022-12-11T21:13:52.320Z,87.80
2022-12-11T21:16:20.548Z,88.00
2022-12-11T21:18:48.466Z,88.20
2022-12-11T21:21:17.175Z,88.50
2022-12-11T21:23:45.010Z,88.70
2022-12-11T21:26:13.085Z,88.60
2022-12-11T21:28:40.771Z,88.80
2022-12-11T21:31:16.916Z,88.50
2022-12-11T21:33:44.373Z,88.20
2022-12-11T21:36:14.105Z,87.40
2022-12-11T21:38:43.495Z,86.80
2022-12-11T21:41:13.754Z,86.10
2022-12-11T21:44:03.245Z,85.60
2022-12-11T21:46:29.920Z,85.30
2022-12-11T21:48:57.557Z,84.90
2022-12-11T21:51:37.185Z,84.60
2022-12-11T21:54:10.652Z,84.40
2022-12-11T21:56:38.049Z,84.30
2022-12-11T21:59:05.736Z,84.20
2022-12-11T22:01:41.052Z,84.00
2022-12-11T22:04:10.024Z,83.60
2022-12-11T22:06:38.014Z,83.30
2022-12-11T22:09:06.224Z,83.10
2022-12-11T22:11:36.802Z,82.90
2022-12-11T22:14:04.443Z,82.30
2022-12-11T22:16:32.642Z,82.30
2022-12-11T22:19:00.309Z,81.60
2022-12-11T22:21:27.678Z,81.50
2022-12-11T22:23:54.943Z,81.10
2022-12-11T22:26:26.299Z,80.40
2022-12-11T22:28:54.412Z,80.40
2022-12-11T22:31:24.103Z,80.10
2022-12-11T22:33:54.028Z,79.80
2022-12-11T22:36:22.970Z,79.50
2022-12-11T22:38:51.118Z,79.40
2022-12-11T22:41:28.745Z,79.10
2022-12-11T22:43:57.427Z,79.10
2022-12-11T22:46:30.381Z,79.10
2022-12-11T22:48:58.864Z,80.90
2022-12-11T22:51:26.404Z,82.50
2022-12-11T22:53:53.637Z,83.80
2022-12-11T22:56:21.233Z,84.70
2022-12-11T22:58:48.528Z,84.30
2022-12-11T23:01:21.870Z,83.50
2022-12-11T23:03:49.574Z,82.60
2022-12-11T23:06:25.105Z,81.50
2022-12-11T23:08:58.876Z,80.80
2022-12-11T23:11:32.524Z,80.30
2022-12-11T23:13:59.771Z,80.40
2022-12-11T23:16:28.115Z,80.80
2022-12-11T23:18:56.761Z,82.30
2022-12-11T23:21:25.337Z,83.70
2022-12-11T23:23:53.494Z,84.30
2022-12-11T23:26:21.686Z,84.80
2022-12-11T23:28:50.615Z,85.50
2022-12-11T23:31:18.520Z,86.20
2022-12-11T23:33:46.324Z,87.00
2022-12-11T23:36:13.750Z,87.70
2022-12-11T23:38:42.715Z,87.90
2022-12-11T23:41:13.562Z,87.90
2022-12-11T23:43:42.823Z,87.80
2022-12-11T23:46:23.172Z,87.60
2022-12-11T23:48:52.278Z,87.70
2022-12-11T23:51:24.334Z,87.20
2022-12-11T23:53:52.748Z,87.30
2022-12-11T23:56:27.027Z,87.20
2022-12-11T23:58:56.434Z,87.20
